此METAR来自2022年8月16日 05:50. 最近的
罗盘
风向 的 风向 的 风向 到 风向 180° Norden-Norddeich Airport 16/34
风: 4 kt, 2 beaufort

4 kt

1 kt
改变
0 2.000 4.000 6.000 8.000 10.000
BKN 9.200 ft
METAR EDWE 160350Z AUTO 18004KT 150V210 5000 // BKN092/// 19/18 Q1005

METAR Norden-Norddeich Airport - EDWS/NOD

Norden-Norddeich Airport是Norddeich,德国中的小机场。 该机场有一条跑道: 16/34. 该领域的国际民航组织标志是EDWS 它的国际航空运输协会代码是NOD.

这份报告是针对2022年8月16日 05:50, 当地时间在Emden Airport进行的。

机场观察

风向为180°,速度为4 kt。 风向在150°和210°之间变化。

可见度为5 km。

有碎云在9.200 ft的高度。 破损或更高的上限为9.200 ft。

温度和风寒是19 °C。 露点为18 °C,相对湿度为94%。 海平面上的气压为1005 hPa (QNH)。

白天

今天,太阳从07:27升起,在19:16降落。 这适用于Norden-Norddeich Airport,世界夏令时可能有所不同。 当地时间与世界标准时间之间的时差为+2 小时。 夏令时目前正在进行中。

公司介绍

我们没有关于这个机场的公司信息。

体会

到Vliegles.nl去找飞行课程,跳伞和其他飞行体验。 浏览页面,了解Norden-Norddeich Airport附近所有可用的活动。 你也可以使用搜索功能来寻找你所在地附近的特定飞行课程、跳伞或其他飞行体验。

跑道

Id 标题 侧风 逆风 侧风 %
16/34 159°-339° 1 kt 4 kt 36 %

逆风成分最大的方向会被突出显示,并用于横风计算。 这并不一定意味着这个方向在使用。

乌云

9.200 ft BKN 碎云

温度 & 天气

温度 19 °C
露点 18 °C
相对湿度 94%
Kp-index 1 (0-9)

白天

日出
06:12
中午
13:35
日落
20:57

小工具

你想在你的网站上有一个关于Norden-Norddeich Airport的当前航空天气(METAR)的小部件吗?

</> 显示HTML代码

我们和第三方通过cookies跟踪您在我们网站上的上网行为。如果您继续,我们认为您同意我们的cookie政策。 了解更多